createdAt,value
2023-03-05T00:01:59.130Z,2.15
2023-03-05T00:04:25.825Z,2.45
2023-03-05T00:06:52.538Z,2.35
2023-03-05T00:09:19.194Z,2.50
2023-03-05T00:11:45.958Z,1.90
2023-03-05T00:14:13.115Z,2.00
2023-03-05T00:16:39.987Z,2.53
2023-03-05T00:19:06.932Z,2.25
2023-03-05T00:21:39.367Z,2.35
2023-03-05T00:24:11.067Z,1.92
2023-03-05T00:26:39.038Z,2.25
2023-03-05T00:29:07.386Z,1.90
2023-03-05T00:31:36.320Z,2.28
2023-03-05T00:34:06.030Z,2.20
2023-03-05T00:36:33.179Z,2.25
2023-03-05T00:38:59.889Z,2.38
2023-03-05T00:41:26.808Z,2.83
2023-03-05T00:43:54.114Z,3.08
2023-03-05T00:46:20.775Z,3.33
2023-03-05T00:48:47.520Z,2.40
2023-03-05T00:51:14.257Z,2.50
2023-03-05T00:53:40.858Z,2.70
2023-03-05T00:56:07.677Z,2.17
2023-03-05T00:58:34.463Z,2.50
2023-03-05T01:01:02.672Z,2.85
2023-03-05T01:03:32.206Z,2.80
2023-03-05T01:05:59.703Z,2.80
2023-03-05T01:08:26.538Z,3.05
2023-03-05T01:10:53.276Z,2.55
2023-03-05T01:13:19.901Z,2.72
2023-03-05T01:15:48.654Z,2.13
2023-03-05T01:18:15.951Z,2.53
2023-03-05T01:20:42.921Z,2.65
2023-03-05T01:23:09.677Z,2.22
2023-03-05T01:25:36.742Z,2.30
2023-03-05T01:28:03.791Z,2.20
2023-03-05T01:30:31.738Z,2.47
2023-03-05T01:32:58.455Z,2.65
2023-03-05T01:35:25.857Z,2.53
2023-03-05T01:37:53.412Z,2.85
2023-03-05T01:40:25.969Z,2.78
2023-03-05T01:42:59.684Z,2.58
2023-03-05T01:45:26.406Z,2.70
2023-03-05T01:47:53.158Z,3.30
2023-03-05T01:50:22.937Z,2.97
2023-03-05T01:52:53.404Z,3.22
2023-03-05T01:55:23.119Z,2.95
2023-03-05T01:57:56.481Z,2.88
2023-03-05T02:00:27.064Z,3.20
2023-03-05T02:02:54.314Z,3.10
2023-03-05T02:05:29.446Z,3.13
2023-03-05T02:08:09.774Z,2.80
2023-03-05T02:10:45.745Z,3.30
2023-03-05T02:13:15.281Z,3.25
2023-03-05T02:15:42.168Z,3.00
2023-03-05T02:18:10.485Z,2.65
2023-03-05T02:20:56.753Z,3.67
2023-03-05T02:23:26.390Z,2.65
2023-03-05T02:25:53.522Z,2.47
2023-03-05T02:28:26.627Z,3.15
2023-03-05T02:30:53.501Z,2.70
2023-03-05T02:33:20.791Z,2.38
2023-03-05T02:35:48.335Z,2.65
2023-03-05T02:38:17.138Z,2.53
2023-03-05T02:40:44.296Z,3.05
2023-03-05T02:43:11.416Z,2.63
2023-03-05T02:45:38.949Z,2.20
2023-03-05T02:48:05.831Z,2.58
2023-03-05T02:50:34.704Z,2.78
2023-03-05T02:53:01.377Z,2.13
2023-03-05T02:55:28.752Z,2.40
2023-03-05T02:57:55.454Z,2.40
2023-03-05T03:00:22.656Z,2.53
2023-03-05T03:02:49.906Z,2.60
2023-03-05T03:05:16.610Z,2.88
2023-03-05T03:07:43.315Z,2.33
2023-03-05T03:10:10.754Z,2.28
2023-03-05T03:12:42.118Z,2.30
2023-03-05T03:15:10.007Z,2.20
2023-03-05T03:17:37.344Z,2.35
2023-03-05T03:20:09.292Z,2.47
2023-03-05T03:22:36.012Z,2.10
2023-03-05T03:25:04.225Z,2.00
2023-03-05T03:27:30.820Z,2.80
2023-03-05T03:30:00.924Z,2.30
2023-03-05T03:32:27.628Z,2.25
2023-03-05T03:34:54.259Z,2.85
2023-03-05T03:37:20.892Z,3.03
2023-03-05T03:39:47.502Z,2.70
2023-03-05T03:42:17.393Z,2.95
2023-03-05T03:44:44.035Z,2.70
2023-03-05T03:47:10.697Z,2.80
2023-03-05T03:49:37.338Z,2.83
2023-03-05T03:52:04.054Z,2.90
2023-03-05T03:54:30.933Z,2.53
2023-03-05T03:56:57.574Z,3.08
2023-03-05T03:59:24.250Z,3.00
2023-03-05T04:01:51.068Z,2.90
2023-03-05T04:04:17.966Z,3.95
2023-03-05T04:06:44.953Z,3.33
2023-03-05T04:09:11.616Z,3.72
2023-03-05T04:11:38.322Z,3.88
2023-03-05T04:14:05.273Z,3.42
2023-03-05T04:16:32.042Z,4.30
2023-03-05T04:18:58.659Z,4.07
2023-03-05T04:21:25.503Z,2.78
2023-03-05T04:23:52.123Z,3.60
2023-03-05T04:26:18.813Z,3.42
2023-03-05T04:28:48.321Z,3.03
2023-03-05T04:31:15.604Z,2.67
2023-03-05T04:33:42.347Z,3.35
2023-03-05T04:36:09.144Z,3.28
2023-03-05T04:38:35.745Z,3.10
2023-03-05T04:41:02.471Z,2.97
2023-03-05T04:43:29.081Z,4.15
2023-03-05T04:45:56.021Z,3.33
2023-03-05T04:48:22.634Z,3.38
2023-03-05T04:50:49.360Z,3.40
2023-03-05T04:53:16.151Z,4.10
2023-03-05T04:55:43.445Z,3.38
2023-03-05T04:58:10.305Z,4.28
2023-03-05T05:00:37.079Z,3.80
2023-03-05T05:03:03.987Z,4.38
2023-03-05T05:05:30.722Z,3.80
2023-03-05T05:07:58.211Z,4.25
2023-03-05T05:10:25.678Z,3.80
2023-03-05T05:12:52.553Z,4.10
2023-03-05T05:15:19.183Z,4.30
2023-03-05T05:17:46.092Z,4.85
2023-03-05T05:20:14.367Z,5.18
2023-03-05T05:22:41.104Z,5.00
2023-03-05T05:25:08.488Z,4.72
2023-03-05T05:27:35.145Z,6.20
2023-03-05T05:30:02.037Z,6.35
2023-03-05T05:32:28.695Z,5.32
2023-03-05T05:34:58.779Z,5.22
2023-03-05T05:37:26.314Z,4.22
2023-03-05T05:39:53.107Z,4.35
2023-03-05T05:42:21.586Z,3.63
2023-03-05T05:44:48.374Z,3.70
2023-03-05T05:47:15.985Z,4.03
2023-03-05T05:49:42.896Z,4.28
2023-03-05T05:52:09.558Z,4.40
2023-03-05T05:54:36.346Z,4.03
2023-03-05T05:57:03.049Z,3.90
2023-03-05T05:59:29.729Z,3.83
2023-03-05T06:01:56.351Z,3.45
2023-03-05T06:04:23.068Z,3.65
2023-03-05T06:06:49.779Z,4.18
2023-03-05T06:09:16.706Z,3.33
2023-03-05T06:11:43.419Z,5.35
2023-03-05T06:14:10.899Z,4.70
2023-03-05T06:16:37.767Z,5.13
2023-03-05T06:19:04.797Z,4.32
2023-03-05T06:21:31.616Z,3.92
2023-03-05T06:24:01.221Z,4.60
2023-03-05T06:26:28.027Z,4.03
2023-03-05T06:28:55.284Z,3.83
2023-03-05T06:31:25.725Z,5.28
2023-03-05T06:33:57.955Z,5.07
2023-03-05T06:36:25.439Z,5.55
2023-03-05T06:38:53.455Z,5.75
2023-03-05T06:41:27.086Z,4.63
2023-03-05T06:43:54.524Z,5.05
2023-03-05T06:46:24.291Z,4.60
2023-03-05T06:48:51.441Z,5.47
2023-03-05T06:51:33.286Z,5.57
2023-03-05T06:54:05.625Z,5.18
2023-03-05T06:56:32.341Z,3.92
2023-03-05T06:58:59.220Z,3.92
2023-03-05T07:01:25.931Z,4.70
2023-03-05T07:03:54.153Z,5.20
2023-03-05T07:06:21.686Z,5.65
2023-03-05T07:08:48.431Z,4.57
2023-03-05T07:11:19.677Z,5.35
2023-03-05T07:13:49.537Z,4.63
2023-03-05T07:16:24.643Z,5.55
2023-03-05T07:18:51.705Z,3.67
2023-03-05T07:21:21.312Z,4.95
2023-03-05T07:23:48.456Z,5.18
2023-03-05T07:26:15.382Z,4.70
2023-03-05T07:28:42.622Z,5.20
2023-03-05T07:31:13.259Z,4.25
2023-03-05T07:33:39.863Z,5.30
2023-03-05T07:36:09.896Z,4.78
2023-03-05T07:38:36.630Z,5.20
2023-03-05T07:41:08.734Z,5.53
2023-03-05T07:43:35.892Z,5.50
2023-03-05T07:46:07.207Z,6.28
2023-03-05T07:48:34.186Z,4.97
2023-03-05T07:51:06.209Z,4.90
2023-03-05T07:53:32.925Z,5.45
2023-03-05T07:55:59.545Z,5.05
2023-03-05T07:58:26.189Z,5.47
2023-03-05T08:00:52.976Z,5.78
2023-03-05T08:03:19.602Z,5.28
2023-03-05T08:05:46.232Z,5.75
2023-03-05T08:08:12.909Z,5.45
2023-03-05T08:10:39.897Z,6.70
2023-03-05T08:13:06.794Z,5.72
2023-03-05T08:15:33.730Z,5.78
2023-03-05T08:18:00.656Z,5.03
2023-03-05T08:20:27.268Z,4.05
2023-03-05T08:22:53.893Z,4.32
2023-03-05T08:25:20.683Z,5.32
2023-03-05T08:27:47.872Z,4.20
2023-03-05T08:30:17.702Z,4.00
2023-03-05T08:32:48.430Z,4.47
2023-03-05T08:35:15.025Z,4.00
2023-03-05T08:37:41.815Z,1.95
2023-03-05T08:40:09.203Z,2.85
2023-03-05T08:42:35.898Z,4.32
2023-03-05T08:45:02.588Z,4.70
2023-03-05T08:47:29.271Z,4.55
2023-03-05T08:49:57.202Z,4.13
2023-03-05T08:52:24.050Z,4.63
2023-03-05T08:54:51.994Z,3.85
2023-03-05T08:57:18.658Z,5.10
2023-03-05T08:59:45.309Z,4.43
2023-03-05T09:02:14.196Z,3.42
2023-03-05T09:04:41.039Z,3.97
2023-03-05T09:07:07.994Z,3.92
2023-03-05T09:09:34.849Z,4.57
2023-03-05T09:12:02.097Z,4.57
2023-03-05T09:14:29.345Z,4.78
2023-03-05T09:16:56.632Z,4.45
2023-03-05T09:19:23.349Z,4.38
2023-03-05T09:21:50.092Z,3.92
2023-03-05T09:24:16.765Z,3.50
2023-03-05T09:26:44.181Z,3.05
2023-03-05T09:29:10.945Z,3.78
2023-03-05T09:31:37.866Z,3.90
2023-03-05T09:34:05.533Z,2.13
2023-03-05T09:36:32.716Z,2.38
2023-03-05T09:38:59.454Z,3.00
2023-03-05T09:41:42.948Z,2.85
2023-03-05T09:44:28.906Z,2.63
2023-03-05T09:47:00.624Z,2.70
2023-03-05T09:49:59.027Z,3.05
2023-03-05T09:52:36.445Z,2.53
2023-03-05T09:55:03.474Z,2.45
2023-03-05T09:57:41.628Z,2.40
2023-03-05T10:00:30.919Z,2.47
2023-03-05T10:02:59.988Z,2.10
2023-03-05T10:05:52.873Z,2.35
2023-03-05T10:08:23.493Z,2.22
2023-03-05T10:10:54.038Z,2.80
2023-03-05T10:13:38.666Z,2.70
2023-03-05T10:16:23.781Z,2.60
2023-03-05T10:19:08.322Z,2.42
2023-03-05T10:22:11.736Z,2.40
2023-03-05T10:24:44.001Z,2.58
2023-03-05T10:27:21.267Z,2.67
2023-03-05T10:30:07.000Z,2.50
2023-03-05T10:32:52.705Z,2.50
2023-03-05T10:35:39.304Z,21.08
2023-03-05T10:38:37.062Z,2.60
2023-03-05T10:41:12.458Z,57.75
2023-03-05T10:43:45.453Z,2.50
2023-03-05T10:46:21.589Z,1.88
2023-03-05T10:48:55.970Z,8.00
2023-03-05T10:51:36.540Z,2.10
2023-03-05T10:54:15.270Z,2.13
2023-03-05T10:56:42.067Z,1.60
2023-03-05T10:59:08.718Z,1.25
2023-03-05T11:01:37.341Z,1.33
2023-03-05T11:04:06.470Z,1.80
2023-03-05T11:06:53.400Z,1.45
2023-03-05T11:09:32.345Z,2.35
2023-03-05T11:12:08.741Z,1.77
2023-03-05T11:14:38.635Z,2.20
2023-03-05T11:17:28.463Z,2.05
2023-03-05T11:19:56.441Z,2.25
2023-03-05T11:22:24.875Z,2.65
2023-03-05T11:25:15.533Z,1.88
2023-03-05T11:27:52.461Z,2.30
2023-03-05T11:30:34.981Z,1.35
2023-03-05T11:33:20.590Z,2.03
2023-03-05T11:35:48.761Z,2.40
2023-03-05T11:38:29.986Z,2.17
2023-03-05T11:40:58.095Z,2.17
2023-03-05T11:43:25.704Z,1.92
2023-03-05T11:46:01.525Z,3.05
2023-03-05T11:48:35.998Z,2.10
2023-03-05T11:51:09.123Z,3.10
2023-03-05T11:53:37.208Z,1.83
2023-03-05T11:56:22.459Z,1.63
2023-03-05T11:59:09.307Z,2.15
2023-03-05T12:01:49.127Z,1.92
2023-03-05T12:04:16.255Z,1.80
2023-03-05T12:06:47.117Z,1.50
2023-03-05T12:09:27.303Z,1.60
2023-03-05T12:12:04.685Z,1.98
2023-03-05T12:14:52.923Z,1.70
2023-03-05T12:17:29.046Z,1.73
2023-03-05T12:20:06.291Z,1.73
2023-03-05T12:22:41.069Z,1.77
2023-03-05T12:25:45.650Z,1.90
2023-03-05T12:28:18.031Z,1.70
2023-03-05T12:30:44.835Z,1.80
2023-03-05T12:33:34.901Z,1.77
2023-03-05T12:36:20.430Z,1.90
2023-03-05T12:38:53.989Z,1.77
2023-03-05T12:41:24.169Z,1.52
2023-03-05T12:44:06.879Z,1.58
2023-03-05T12:46:38.367Z,1.52
2023-03-05T12:49:20.617Z,1.90
2023-03-05T12:51:49.050Z,1.55
2023-03-05T12:54:35.059Z,1.98
2023-03-05T12:57:18.451Z,1.50
2023-03-05T13:00:23.953Z,1.60
2023-03-05T13:02:56.164Z,1.20
2023-03-05T13:05:33.403Z,1.00
2023-03-05T13:08:16.291Z,1.60
2023-03-05T13:10:43.824Z,2.25
2023-03-05T13:13:15.975Z,1.55
2023-03-05T13:15:49.534Z,1.70
2023-03-05T13:18:25.857Z,2.03
2023-03-05T13:21:06.193Z,2.30
2023-03-05T13:23:34.604Z,2.38
2023-03-05T13:26:18.435Z,1.95
2023-03-05T13:29:02.834Z,2.17
2023-03-05T13:31:29.489Z,2.20
2023-03-05T13:33:59.663Z,2.03
2023-03-05T13:36:27.172Z,2.40
2023-03-05T13:38:54.346Z,2.55
2023-03-05T13:41:22.975Z,3.60
2023-03-05T13:43:55.137Z,3.13
2023-03-05T13:46:27.117Z,2.55
2023-03-05T13:48:53.986Z,3.08
2023-03-05T13:51:20.868Z,2.38
2023-03-05T13:53:48.987Z,2.65
2023-03-05T13:56:20.601Z,1.95
2023-03-05T13:58:57.201Z,1.92
2023-03-05T14:01:33.514Z,2.00
2023-03-05T14:04:28.097Z,1.80
2023-03-05T14:07:00.404Z,1.30
2023-03-05T14:09:47.901Z,1.20
2023-03-05T14:12:27.337Z,1.40
2023-03-05T14:14:54.136Z,2.25
2023-03-05T14:17:27.904Z,1.65
2023-03-05T14:20:22.957Z,1.70
2023-03-05T14:22:52.759Z,1.95
2023-03-05T14:25:35.116Z,1.60
2023-03-05T14:28:07.629Z,1.42
2023-03-05T14:30:36.192Z,1.77
2023-03-05T14:33:03.649Z,1.60
2023-03-05T14:35:30.797Z,1.67
2023-03-05T14:37:58.855Z,1.70
2023-03-05T14:40:33.408Z,1.80
2023-03-05T14:43:05.072Z,1.73
2023-03-05T14:45:37.578Z,1.85
2023-03-05T14:48:06.571Z,1.90
2023-03-05T14:50:36.583Z,1.60
2023-03-05T14:53:08.386Z,1.73
2023-03-05T14:55:35.856Z,1.80
2023-03-05T14:58:10.416Z,2.17
2023-03-05T15:00:37.298Z,2.25
2023-03-05T15:03:04.236Z,2.17
2023-03-05T15:05:31.372Z,2.33
2023-03-05T15:07:58.122Z,2.13
2023-03-05T15:10:25.474Z,2.30
2023-03-05T15:12:53.414Z,2.60
2023-03-05T15:15:21.613Z,2.10
2023-03-05T15:17:51.728Z,2.92
2023-03-05T15:20:24.193Z,2.20
2023-03-05T15:22:51.931Z,2.30
2023-03-05T15:25:20.142Z,2.25
2023-03-05T15:27:47.099Z,2.15
2023-03-05T15:30:38.107Z,1.90
2023-03-05T15:33:07.755Z,2.15
2023-03-05T15:35:34.483Z,2.08
2023-03-05T15:38:01.232Z,2.50
2023-03-05T15:40:28.815Z,2.28
2023-03-05T15:42:56.581Z,2.60
2023-03-05T15:45:23.609Z,2.25
2023-03-05T15:47:53.668Z,2.05
2023-03-05T15:50:21.120Z,2.63
2023-03-05T15:52:49.445Z,2.65
2023-03-05T15:55:18.174Z,2.40
2023-03-05T15:57:47.477Z,2.92
2023-03-05T16:00:16.370Z,2.67
2023-03-05T16:02:43.104Z,2.40
2023-03-05T16:05:11.055Z,2.20
2023-03-05T16:07:39.840Z,1.95
2023-03-05T16:10:07.358Z,2.00
2023-03-05T16:12:40.742Z,2.55
2023-03-05T16:15:11.600Z,2.30
2023-03-05T16:17:39.099Z,2.40
2023-03-05T16:20:06.291Z,2.83
2023-03-05T16:22:34.143Z,2.20
2023-03-05T16:25:01.326Z,2.00
2023-03-05T16:27:28.646Z,2.53
2023-03-05T16:29:55.398Z,2.35
2023-03-05T16:32:22.232Z,2.20
2023-03-05T16:34:48.932Z,2.20
2023-03-05T16:37:21.485Z,2.33
2023-03-05T16:39:48.714Z,2.08
2023-03-05T16:42:16.226Z,2.30
2023-03-05T16:44:44.109Z,2.80
2023-03-05T16:47:13.686Z,2.70
2023-03-05T16:49:40.488Z,2.78
2023-03-05T16:52:18.299Z,2.75
2023-03-05T16:54:46.476Z,2.30
2023-03-05T16:57:13.240Z,2.97
2023-03-05T16:59:40.726Z,2.65
2023-03-05T17:02:08.139Z,2.70
2023-03-05T17:04:35.098Z,2.33
2023-03-05T17:07:05.740Z,2.70
2023-03-05T17:09:32.961Z,2.90
2023-03-05T17:12:00.132Z,3.03
2023-03-05T17:14:26.957Z,3.00
2023-03-05T17:16:56.778Z,2.70
2023-03-05T17:19:23.400Z,2.75
2023-03-05T17:21:52.199Z,2.67
2023-03-05T17:24:21.534Z,2.58
2023-03-05T17:26:50.111Z,2.47
2023-03-05T17:29:18.839Z,2.95
2023-03-05T17:31:46.695Z,2.95
2023-03-05T17:34:13.734Z,2.50
2023-03-05T17:36:41.829Z,2.63
2023-03-05T17:39:08.891Z,2.53
2023-03-05T17:41:35.631Z,2.17
2023-03-05T17:44:02.570Z,2.50
2023-03-05T17:46:29.341Z,3.00
2023-03-05T17:48:56.344Z,2.63
2023-03-05T17:51:23.091Z,2.72
2023-03-05T17:53:50.660Z,2.88
2023-03-05T17:56:17.298Z,3.00
2023-03-05T17:58:44.696Z,2.97
2023-03-05T18:01:11.559Z,2.90
2023-03-05T18:03:39.558Z,2.95
2023-03-05T18:06:06.486Z,3.70
2023-03-05T18:08:33.206Z,4.35
2023-03-05T18:11:00.053Z,7.07
2023-03-05T18:13:28.560Z,6.78
2023-03-05T18:15:58.857Z,8.45
2023-03-05T18:18:25.946Z,8.30
2023-03-05T18:20:52.637Z,8.75
2023-03-05T18:23:19.285Z,7.80
2023-03-05T18:25:46.221Z,7.95
2023-03-05T18:28:15.856Z,7.45
2023-03-05T18:30:43.817Z,7.85
2023-03-05T18:33:24.496Z,8.30
2023-03-05T18:35:52.499Z,9.18
2023-03-05T18:38:21.198Z,9.02
2023-03-05T18:40:48.520Z,8.52
2023-03-05T18:43:17.144Z,8.00
2023-03-05T18:45:44.485Z,7.45
2023-03-05T18:48:13.433Z,8.25
2023-03-05T18:50:40.111Z,7.32
2023-03-05T18:53:06.756Z,7.57
2023-03-05T18:55:33.448Z,7.00
2023-03-05T18:58:00.143Z,7.65
2023-03-05T19:00:30.588Z,7.22
2023-03-05T19:02:58.011Z,7.50
2023-03-05T19:05:26.303Z,7.30
2023-03-05T19:07:53.154Z,6.75
2023-03-05T19:10:20.470Z,7.68
2023-03-05T19:12:55.461Z,7.70
2023-03-05T19:15:23.203Z,8.00
2023-03-05T19:17:50.408Z,6.88
2023-03-05T19:20:17.981Z,7.95
2023-03-05T19:22:44.784Z,7.05
2023-03-05T19:25:12.102Z,7.43
2023-03-05T19:27:38.970Z,6.75
2023-03-05T19:30:06.342Z,7.45
2023-03-05T19:32:33.275Z,8.73
2023-03-05T19:35:00.111Z,8.13
2023-03-05T19:37:26.843Z,8.35
2023-03-05T19:39:53.732Z,7.00
2023-03-05T19:42:20.437Z,7.18
2023-03-05T19:44:47.230Z,6.97
2023-03-05T19:47:14.124Z,7.57
2023-03-05T19:49:41.059Z,7.82
2023-03-05T19:52:07.878Z,8.68
2023-03-05T19:54:35.765Z,8.38
2023-03-05T19:57:02.426Z,9.15
2023-03-05T19:59:29.335Z,7.57
2023-03-05T20:01:57.471Z,8.50
2023-03-05T20:04:24.639Z,8.00
2023-03-05T20:06:51.825Z,8.40
2023-03-05T20:09:18.630Z,8.55
2023-03-05T20:11:47.052Z,7.78
2023-03-05T20:14:14.651Z,8.50
2023-03-05T20:16:43.308Z,7.55
2023-03-05T20:19:16.159Z,7.85
2023-03-05T20:21:44.028Z,8.15
2023-03-05T20:24:14.353Z,8.35
2023-03-05T20:26:43.345Z,8.55
2023-03-05T20:29:11.274Z,8.13
2023-03-05T20:31:38.538Z,7.55
2023-03-05T20:34:28.141Z,7.85
2023-03-05T20:36:54.846Z,8.75
2023-03-05T20:39:21.545Z,7.90
2023-03-05T20:41:49.361Z,7.75
2023-03-05T20:44:16.582Z,8.68
2023-03-05T20:46:52.526Z,8.82
2023-03-05T20:49:20.024Z,8.40
2023-03-05T20:51:52.122Z,9.38
2023-03-05T20:54:18.876Z,10.55
2023-03-05T20:56:45.677Z,10.48
2023-03-05T20:59:12.872Z,9.85
2023-03-05T21:01:40.066Z,9.45
2023-03-05T21:04:07.746Z,9.88
2023-03-05T21:06:34.770Z,10.65
2023-03-05T21:09:01.544Z,11.10
2023-03-05T21:11:28.781Z,9.75
2023-03-05T21:13:55.420Z,10.70
2023-03-05T21:16:25.818Z,10.77
2023-03-05T21:18:52.959Z,11.30
2023-03-05T21:21:22.642Z,9.05
2023-03-05T21:23:49.341Z,10.52
2023-03-05T21:26:16.845Z,9.05
2023-03-05T21:28:43.808Z,9.82
2023-03-05T21:31:14.504Z,9.55
2023-03-05T21:33:42.108Z,10.20
2023-03-05T21:36:08.950Z,10.18
2023-03-05T21:38:35.860Z,10.60
2023-03-05T21:41:03.483Z,9.68
2023-03-05T21:43:31.334Z,9.68
2023-03-05T21:46:00.399Z,11.60
2023-03-05T21:48:29.591Z,12.80
2023-03-05T21:50:57.268Z,10.20
2023-03-05T21:53:24.179Z,10.73
2023-03-05T21:56:06.147Z,9.93
2023-03-05T21:58:38.240Z,10.77
2023-03-05T22:01:05.506Z,10.30
2023-03-05T22:03:32.204Z,11.02
2023-03-05T22:05:59.008Z,10.90
2023-03-05T22:08:25.834Z,10.32
2023-03-05T22:10:52.759Z,10.35
2023-03-05T22:13:20.594Z,9.57
2023-03-05T22:15:48.792Z,10.35
2023-03-05T22:18:27.258Z,10.73
2023-03-05T22:20:54.229Z,10.82
2023-03-05T22:23:22.470Z,11.27
2023-03-05T22:26:04.114Z,11.02
2023-03-05T22:28:32.024Z,11.85
2023-03-05T22:30:58.818Z,11.82
2023-03-05T22:33:27.043Z,11.43
2023-03-05T22:35:54.669Z,10.90
2023-03-05T22:38:21.610Z,11.55
2023-03-05T22:40:49.209Z,11.45
2023-03-05T22:43:17.576Z,12.50
2023-03-05T22:45:45.571Z,11.70
2023-03-05T22:48:12.576Z,11.45
2023-03-05T22:50:40.736Z,12.30
2023-03-05T22:53:07.508Z,12.02
2023-03-05T22:55:34.384Z,11.95
2023-03-05T22:58:01.163Z,11.45
2023-03-05T23:00:27.833Z,11.30
2023-03-05T23:02:56.604Z,11.05
2023-03-05T23:05:23.305Z,11.35
2023-03-05T23:07:50.200Z,11.82
2023-03-05T23:10:20.085Z,11.38
2023-03-05T23:12:50.012Z,12.20
2023-03-05T23:15:25.305Z,11.88
2023-03-05T23:17:52.178Z,11.02
2023-03-05T23:20:21.066Z,12.07
2023-03-05T23:22:48.796Z,12.02
2023-03-05T23:25:16.486Z,12.15
2023-03-05T23:27:43.950Z,12.10
2023-03-05T23:30:21.245Z,13.10
2023-03-05T23:32:55.914Z,12.35
2023-03-05T23:35:38.692Z,12.55
2023-03-05T23:38:08.202Z,11.95
2023-03-05T23:40:37.662Z,13.35
2023-03-05T23:43:04.535Z,13.25
2023-03-05T23:45:32.569Z,13.02
2023-03-05T23:47:59.597Z,12.70
2023-03-05T23:50:31.968Z,11.90
2023-03-05T23:53:01.373Z,11.77
2023-03-05T23:55:34.688Z,13.20
2023-03-05T23:58:01.846Z,13.50
